Deer Lodge (38S)
Deer Lodge, MT
Field Elevation: 4692
Lat: 49°23.27N  Long: 112°45.89W
CTAF/Unicom Freq: 120.0250
   
     For Weather-by-Phone, call 406-846-1177
Weather Advisories
7/30/2014 11:04 Z
Altimeter 30.28" Hg
Wind 230° @ 0 KT
Gusts --
Visibility 10 SM
Temperature 11° C (52° F)
Dewpoint 7° C (45° F)
Relative Humidity 76%
Density Altitude --
Condensation Altitude 6,900 feet
  Wind and Runways
Indicated Runway = 31
History
 
 
More Info
All DigiWx sites map
Weather Radar
NOAA Forecast
 
Airport IQ 5010
(S59) Libby
(6S5) Ravalli County
 
about DigiWx
 
FAA Disclaimer: The data displayed is for advisory purposes only and is not to be used for flight planning or operations. For official data, please call 406-846-1177 to hear the current automated AWOS voice message.
  METAR 38S 301104Z AUTO 23000KT 10SM 11/07 A3028